sensor_id;sensor_type;location;lat;lon;timestamp;temperature;humidity
3980;DHT22;2004;52.452;13.120;2023-02-24T00:00:28;6.80;99.90
3980;DHT22;2004;52.452;13.120;2023-02-24T00:08:23;6.80;99.90
3980;DHT22;2004;52.452;13.120;2023-02-24T00:16:15;6.80;99.90
3980;DHT22;2004;52.452;13.120;2023-02-24T00:24:09;6.80;99.90
3980;DHT22;2004;52.452;13.120;2023-02-24T00:31:59;6.70;99.90
3980;DHT22;2004;52.452;13.120;2023-02-24T00:39:50;6.70;99.90
3980;DHT22;2004;52.452;13.120;2023-02-24T00:47:41;6.60;99.90
3980;DHT22;2004;52.452;13.120;2023-02-24T00:55:33;6.40;99.90
3980;DHT22;2004;52.452;13.120;2023-02-24T01:03:26;6.10;99.90
3980;DHT22;2004;52.452;13.120;2023-02-24T01:11:19;5.90;99.90
3980;DHT22;2004;52.452;13.120;2023-02-24T01:19:31;5.70;99.90
3980;DHT22;2004;52.452;13.120;2023-02-24T01:27:22;5.50;99.90
3980;DHT22;2004;52.452;13.120;2023-02-24T01:35:12;5.30;99.90
3980;DHT22;2004;52.452;13.120;2023-02-24T01:43:04;5.20;99.90
3980;DHT22;2004;52.452;13.120;2023-02-24T01:50:58;5.10;99.90
3980;DHT22;2004;52.452;13.120;2023-02-24T01:58:48;5.00;99.90
3980;DHT22;2004;52.452;13.120;2023-02-24T02:06:40;4.90;99.90
3980;DHT22;2004;52.452;13.120;2023-02-24T02:14:35;4.80;99.90
3980;DHT22;2004;52.452;13.120;2023-02-24T02:22:43;4.70;99.90
3980;DHT22;2004;52.452;13.120;2023-02-24T02:31:01;4.60;99.90
3980;DHT22;2004;52.452;13.120;2023-02-24T02:39:21;4.50;99.90
3980;DHT22;2004;52.452;13.120;2023-02-24T02:47:58;4.40;99.90
3980;DHT22;2004;52.452;13.120;2023-02-24T02:56:02;4.30;99.90
3980;DHT22;2004;52.452;13.120;2023-02-24T03:04:00;4.20;99.90
3980;DHT22;2004;52.452;13.120;2023-02-24T03:12:02;4.20;99.90
3980;DHT22;2004;52.452;13.120;2023-02-24T03:20:20;4.10;99.90
3980;DHT22;2004;52.452;13.120;2023-02-24T03:28:21;4.00;99.90
3980;DHT22;2004;52.452;13.120;2023-02-24T03:36:18;3.90;99.90
3980;DHT22;2004;52.452;13.120;2023-02-24T03:44:34;3.90;99.90
3980;DHT22;2004;52.452;13.120;2023-02-24T04:00:48;3.90;99.90
3980;DHT22;2004;52.452;13.120;2023-02-24T04:08:52;3.90;99.90
3980;DHT22;2004;52.452;13.120;2023-02-24T04:17:08;3.80;99.90
3980;DHT22;2004;52.452;13.120;2023-02-24T04:25:00;3.80;99.90
3980;DHT22;2004;52.452;13.120;2023-02-24T04:32:51;3.80;99.90
3980;DHT22;2004;52.452;13.120;2023-02-24T04:40:42;3.80;99.90
3980;DHT22;2004;52.452;13.120;2023-02-24T04:48:33;3.80;99.90
3980;DHT22;2004;52.452;13.120;2023-02-24T04:56:24;3.80;99.90
3980;DHT22;2004;52.452;13.120;2023-02-24T05:04:15;3.80;99.90
3980;DHT22;2004;52.452;13.120;2023-02-24T05:12:05;3.70;99.90
3980;DHT22;2004;52.452;13.120;2023-02-24T05:19:58;3.70;99.90
3980;DHT22;2004;52.452;13.120;2023-02-24T05:28:08;3.70;99.90
3980;DHT22;2004;52.452;13.120;2023-02-24T05:36:02;3.70;99.90
3980;DHT22;2004;52.452;13.120;2023-02-24T05:43:54;3.70;99.90
3980;DHT22;2004;52.452;13.120;2023-02-24T05:51:45;3.60;99.90
3980;DHT22;2004;52.452;13.120;2023-02-24T05:59:43;3.60;99.90
3980;DHT22;2004;52.452;13.120;2023-02-24T06:07:34;3.60;99.90
3980;DHT22;2004;52.452;13.120;2023-02-24T06:15:25;3.60;99.90
3980;DHT22;2004;52.452;13.120;2023-02-24T06:23:15;3.60;99.90
3980;DHT22;2004;52.452;13.120;2023-02-24T06:31:07;3.60;99.90
3980;DHT22;2004;52.452;13.120;2023-02-24T06:38:58;3.60;99.90
3980;DHT22;2004;52.452;13.120;2023-02-24T06:46:48;3.60;99.90
3980;DHT22;2004;52.452;13.120;2023-02-24T06:54:39;3.60;99.90
3980;DHT22;2004;52.452;13.120;2023-02-24T07:02:31;3.70;99.90
3980;DHT22;2004;52.452;13.120;2023-02-24T07:10:29;3.70;99.90
3980;DHT22;2004;52.452;13.120;2023-02-24T07:18:19;3.70;99.90
3980;DHT22;2004;52.452;13.120;2023-02-24T07:26:15;3.70;99.90
3980;DHT22;2004;52.452;13.120;2023-02-24T07:34:06;3.70;99.90
3980;DHT22;2004;52.452;13.120;2023-02-24T07:41:57;3.70;99.90
3980;DHT22;2004;52.452;13.120;2023-02-24T07:49:48;3.80;99.90
3980;DHT22;2004;52.452;13.120;2023-02-24T07:57:41;3.80;99.90
3980;DHT22;2004;52.452;13.120;2023-02-24T08:05:35;3.80;99.90
3980;DHT22;2004;52.452;13.120;2023-02-24T08:13:27;3.90;99.90
3980;DHT22;2004;52.452;13.120;2023-02-24T08:21:26;3.90;99.90
3980;DHT22;2004;52.452;13.120;2023-02-24T08:29:19;3.90;99.90
3980;DHT22;2004;52.452;13.120;2023-02-24T08:37:09;4.00;99.90
3980;DHT22;2004;52.452;13.120;2023-02-24T08:45:00;4.10;99.90
3980;DHT22;2004;52.452;13.120;2023-02-24T08:52:51;4.20;99.90
3980;DHT22;2004;52.452;13.120;2023-02-24T09:00:41;4.30;99.90
3980;DHT22;2004;52.452;13.120;2023-02-24T09:08:39;4.40;99.90
3980;DHT22;2004;52.452;13.120;2023-02-24T09:16:30;4.50;99.90
3980;DHT22;2004;52.452;13.120;2023-02-24T09:24:21;4.50;99.90
3980;DHT22;2004;52.452;13.120;2023-02-24T09:32:17;4.50;99.90
3980;DHT22;2004;52.452;13.120;2023-02-24T09:40:09;4.60;99.90
3980;DHT22;2004;52.452;13.120;2023-02-24T09:48:14;4.60;99.90
3980;DHT22;2004;52.452;13.120;2023-02-24T09:56:37;4.70;99.90
3980;DHT22;2004;52.452;13.120;2023-02-24T10:04:47;4.80;99.90
3980;DHT22;2004;52.452;13.120;2023-02-24T10:12:48;4.80;99.90
3980;DHT22;2004;52.452;13.120;2023-02-24T10:20:42;4.90;99.90
3980;DHT22;2004;52.452;13.120;2023-02-24T10:28:47;5.00;99.90
3980;DHT22;2004;52.452;13.120;2023-02-24T10:36:41;5.00;99.80
3980;DHT22;2004;52.452;13.120;2023-02-24T10:44:36;5.00;98.30
3980;DHT22;2004;52.452;13.120;2023-02-24T10:52:37;4.80;99.70
3980;DHT22;2004;52.452;13.120;2023-02-24T11:00:52;4.70;99.90
3980;DHT22;2004;52.452;13.120;2023-02-24T11:08:43;4.50;99.90
3980;DHT22;2004;52.452;13.120;2023-02-24T11:16:49;4.30;99.90
3980;DHT22;2004;52.452;13.120;2023-02-24T11:25:05;4.10;99.90
3980;DHT22;2004;52.452;13.120;2023-02-24T11:33:26;3.80;99.90
3980;DHT22;2004;52.452;13.120;2023-02-24T11:41:29;3.60;99.90
3980;DHT22;2004;52.452;13.120;2023-02-24T11:49:28;3.50;99.90
3980;DHT22;2004;52.452;13.120;2023-02-24T11:57:25;3.40;99.90
3980;DHT22;2004;52.452;13.120;2023-02-24T12:05:23;3.40;99.90
3980;DHT22;2004;52.452;13.120;2023-02-24T12:21:35;3.30;99.90
3980;DHT22;2004;52.452;13.120;2023-02-24T12:46:05;3.30;99.90
3980;DHT22;2004;52.452;13.120;2023-02-24T13:18:35;3.10;99.90
3980;DHT22;2004;52.452;13.120;2023-02-24T13:26:29;2.90;99.90
3980;DHT22;2004;52.452;13.120;2023-02-24T13:34:42;2.90;99.90
3980;DHT22;2004;52.452;13.120;2023-02-24T13:42:33;2.90;99.90
3980;DHT22;2004;52.452;13.120;2023-02-24T13:58:33;2.90;99.90
3980;DHT22;2004;52.452;13.120;2023-02-24T14:06:26;2.90;99.90
3980;DHT22;2004;52.452;13.120;2023-02-24T14:14:17;2.90;99.90
3980;DHT22;2004;52.452;13.120;2023-02-24T14:22:18;2.90;99.90
3980;DHT22;2004;52.452;13.120;2023-02-24T14:30:31;2.90;99.90
3980;DHT22;2004;52.452;13.120;2023-02-24T14:38:37;2.90;99.90
3980;DHT22;2004;52.452;13.120;2023-02-24T14:46:28;2.90;99.90
3980;DHT22;2004;52.452;13.120;2023-02-24T14:54:25;3.00;99.90
3980;DHT22;2004;52.452;13.120;2023-02-24T15:02:29;3.00;99.90
3980;DHT22;2004;52.452;13.120;2023-02-24T15:10:26;2.90;99.90
3980;DHT22;2004;52.452;13.120;2023-02-24T15:18:26;2.90;99.90
3980;DHT22;2004;52.452;13.120;2023-02-24T15:26:32;2.90;99.90
3980;DHT22;2004;52.452;13.120;2023-02-24T15:34:28;2.90;99.90
3980;DHT22;2004;52.452;13.120;2023-02-24T15:42:26;2.90;99.90
3980;DHT22;2004;52.452;13.120;2023-02-24T15:50:17;2.90;99.90
3980;DHT22;2004;52.452;13.120;2023-02-24T15:58:15;2.80;99.90
3980;DHT22;2004;52.452;13.120;2023-02-24T16:06:13;2.90;99.90
3980;DHT22;2004;52.452;13.120;2023-02-24T16:14:10;2.80;99.90
3980;DHT22;2004;52.452;13.120;2023-02-24T16:22:03;2.90;99.90
3980;DHT22;2004;52.452;13.120;2023-02-24T16:29:56;2.90;99.90
3980;DHT22;2004;52.452;13.120;2023-02-24T16:37:47;2.90;99.90
3980;DHT22;2004;52.452;13.120;2023-02-24T16:45:38;2.90;99.90
3980;DHT22;2004;52.452;13.120;2023-02-24T16:53:31;3.00;99.90
3980;DHT22;2004;52.452;13.120;2023-02-24T17:01:21;3.00;99.90
3980;DHT22;2004;52.452;13.120;2023-02-24T17:09:12;3.00;99.90
3980;DHT22;2004;52.452;13.120;2023-02-24T17:17:04;3.00;99.90
3980;DHT22;2004;52.452;13.120;2023-02-24T17:24:55;3.00;99.90
3980;DHT22;2004;52.452;13.120;2023-02-24T17:32:47;3.10;99.90
3980;DHT22;2004;52.452;13.120;2023-02-24T17:40:38;3.10;99.90
3980;DHT22;2004;52.452;13.120;2023-02-24T17:48:29;3.10;99.90
3980;DHT22;2004;52.452;13.120;2023-02-24T17:56:19;3.20;99.90
3980;DHT22;2004;52.452;13.120;2023-02-24T18:04:12;3.20;99.90
3980;DHT22;2004;52.452;13.120;2023-02-24T18:12:04;3.30;99.90
3980;DHT22;2004;52.452;13.120;2023-02-24T18:19:54;3.30;99.90
3980;DHT22;2004;52.452;13.120;2023-02-24T18:27:45;3.30;99.90
3980;DHT22;2004;52.452;13.120;2023-02-24T18:35:35;3.40;99.90
3980;DHT22;2004;52.452;13.120;2023-02-24T18:43:26;3.40;99.90
3980;DHT22;2004;52.452;13.120;2023-02-24T18:51:19;3.50;99.90
3980;DHT22;2004;52.452;13.120;2023-02-24T18:59:10;3.50;99.90
3980;DHT22;2004;52.452;13.120;2023-02-24T19:07:01;3.50;99.90
3980;DHT22;2004;52.452;13.120;2023-02-24T19:14:51;3.50;99.90
3980;DHT22;2004;52.452;13.120;2023-02-24T19:22:42;3.60;99.90
3980;DHT22;2004;52.452;13.120;2023-02-24T19:30:33;3.60;99.90
3980;DHT22;2004;52.452;13.120;2023-02-24T19:38:23;3.70;99.90
3980;DHT22;2004;52.452;13.120;2023-02-24T19:46:14;3.70;99.90
3980;DHT22;2004;52.452;13.120;2023-02-24T19:54:05;3.70;99.90
3980;DHT22;2004;52.452;13.120;2023-02-24T20:01:56;3.70;99.90
3980;DHT22;2004;52.452;13.120;2023-02-24T20:09:47;3.80;99.90
3980;DHT22;2004;52.452;13.120;2023-02-24T20:17:37;3.80;99.90
3980;DHT22;2004;52.452;13.120;2023-02-24T20:25:28;3.80;99.90
3980;DHT22;2004;52.452;13.120;2023-02-24T20:33:19;3.80;99.90
3980;DHT22;2004;52.452;13.120;2023-02-24T20:41:10;3.80;99.90
3980;DHT22;2004;52.452;13.120;2023-02-24T20:49:06;3.80;99.90
3980;DHT22;2004;52.452;13.120;2023-02-24T20:56:57;3.80;99.90
3980;DHT22;2004;52.452;13.120;2023-02-24T21:04:48;3.80;99.90
3980;DHT22;2004;52.452;13.120;2023-02-24T21:12:39;3.80;99.90
3980;DHT22;2004;52.452;13.120;2023-02-24T21:20:30;3.90;99.90
3980;DHT22;2004;52.452;13.120;2023-02-24T21:28:21;3.90;99.90
3980;DHT22;2004;52.452;13.120;2023-02-24T21:36:13;3.90;99.90
3980;DHT22;2004;52.452;13.120;2023-02-24T21:44:04;4.00;99.90
3980;DHT22;2004;52.452;13.120;2023-02-24T21:51:55;4.00;99.90
3980;DHT22;2004;52.452;13.120;2023-02-24T21:59:46;4.00;99.90
3980;DHT22;2004;52.452;13.120;2023-02-24T22:07:37;4.00;99.90
3980;DHT22;2004;52.452;13.120;2023-02-24T22:15:28;4.10;99.90
3980;DHT22;2004;52.452;13.120;2023-02-24T22:23:18;4.00;99.90
3980;DHT22;2004;52.452;13.120;2023-02-24T22:31:10;4.10;99.90
3980;DHT22;2004;52.452;13.120;2023-02-24T22:39:01;4.10;99.90
3980;DHT22;2004;52.452;13.120;2023-02-24T22:46:52;4.10;99.90
3980;DHT22;2004;52.452;13.120;2023-02-24T22:54:43;4.10;99.90
3980;DHT22;2004;52.452;13.120;2023-02-24T23:02:35;4.20;99.90
3980;DHT22;2004;52.452;13.120;2023-02-24T23:10:25;4.20;99.90
3980;DHT22;2004;52.452;13.120;2023-02-24T23:18:16;4.20;99.90
3980;DHT22;2004;52.452;13.120;2023-02-24T23:26:06;4.30;99.90
3980;DHT22;2004;52.452;13.120;2023-02-24T23:33:57;4.30;99.90
3980;DHT22;2004;52.452;13.120;2023-02-24T23:41:49;4.30;99.90
3980;DHT22;2004;52.452;13.120;2023-02-24T23:49:43;4.20;99.90
3980;DHT22;2004;52.452;13.120;2023-02-24T23:57:33;4.10;99.90
